createdAt,value
2023-09-11T00:00:45.689Z,14.76
2023-09-11T00:03:33.964Z,14.67
2023-09-11T00:06:06.343Z,14.72
2023-09-11T00:08:35.142Z,14.77
2023-09-11T00:11:04.212Z,14.78
2023-09-11T00:13:32.487Z,14.75
2023-09-11T00:16:00.926Z,14.63
2023-09-11T00:18:29.030Z,14.58
2023-09-11T00:20:57.262Z,14.59
2023-09-11T00:23:25.303Z,14.55
2023-09-11T00:25:53.263Z,14.53
2023-09-11T00:28:21.326Z,14.47
2023-09-11T00:30:49.239Z,14.40
2023-09-11T00:33:17.948Z,14.38
2023-09-11T00:35:46.663Z,14.36
2023-09-11T00:38:14.733Z,14.35
2023-09-11T00:40:42.591Z,14.32
2023-09-11T00:43:10.572Z,14.28
2023-09-11T00:45:38.484Z,14.24
2023-09-11T00:48:06.852Z,14.19
2023-09-11T00:50:35.246Z,14.13
2023-09-11T00:53:05.431Z,14.08
2023-09-11T00:55:34.175Z,14.06
2023-09-11T00:58:02.508Z,14.03
2023-09-11T01:00:30.675Z,13.99
2023-09-11T01:02:59.744Z,13.93
2023-09-11T01:05:29.844Z,13.89
2023-09-11T01:07:58.134Z,13.89
2023-09-11T01:10:26.244Z,13.90
2023-09-11T01:12:54.287Z,13.93
2023-09-11T01:15:23.447Z,13.98
2023-09-11T01:18:00.607Z,14.03
2023-09-11T01:20:47.158Z,14.06
2023-09-11T01:23:15.017Z,14.05
2023-09-11T01:26:02.124Z,13.92
2023-09-11T01:28:49.069Z,13.83
2023-09-11T01:31:18.787Z,13.81
2023-09-11T01:33:53.288Z,13.82
2023-09-11T01:36:21.306Z,13.87
2023-09-11T01:38:49.346Z,13.95
2023-09-11T01:41:18.638Z,14.00
2023-09-11T01:43:47.322Z,14.01
2023-09-11T01:46:15.764Z,14.01
2023-09-11T01:48:45.397Z,14.00
2023-09-11T01:51:14.634Z,13.95
2023-09-11T01:53:42.960Z,13.90
2023-09-11T01:56:11.328Z,13.84
2023-09-11T01:58:39.548Z,13.79
2023-09-11T02:01:07.936Z,13.75
2023-09-11T02:03:35.937Z,13.79
2023-09-11T02:06:04.255Z,13.79
2023-09-11T02:08:32.227Z,13.78
2023-09-11T02:11:00.231Z,13.76
2023-09-11T02:13:28.200Z,13.73
2023-09-11T02:15:56.110Z,13.69
2023-09-11T02:18:24.032Z,13.60
2023-09-11T02:20:52.194Z,13.55
2023-09-11T02:23:20.461Z,13.54
2023-09-11T02:25:49.434Z,13.58
2023-09-11T02:28:17.505Z,13.63
2023-09-11T02:30:46.178Z,13.67
2023-09-11T02:33:14.795Z,13.77
2023-09-11T02:35:43.003Z,13.78
2023-09-11T02:38:11.218Z,13.77
2023-09-11T02:40:39.224Z,13.82
2023-09-11T02:43:07.291Z,13.87
2023-09-11T02:45:35.425Z,13.89
2023-09-11T02:48:03.742Z,13.93
2023-09-11T02:50:32.014Z,13.92
2023-09-11T02:53:00.238Z,13.83
2023-09-11T02:55:28.228Z,13.75
2023-09-11T02:57:56.181Z,13.66
2023-09-11T03:00:24.067Z,13.59
2023-09-11T03:02:52.577Z,13.55
2023-09-11T03:05:20.664Z,13.56
2023-09-11T03:07:48.646Z,13.57
2023-09-11T03:10:16.693Z,13.52
2023-09-11T03:12:44.620Z,13.44
2023-09-11T03:15:12.522Z,13.35
2023-09-11T03:17:41.837Z,13.26
2023-09-11T03:20:10.483Z,13.21
2023-09-11T03:22:38.416Z,13.15
2023-09-11T03:25:06.706Z,13.08
2023-09-11T03:27:34.702Z,12.99
2023-09-11T03:30:02.877Z,12.92
2023-09-11T03:32:31.360Z,12.86
2023-09-11T03:34:59.448Z,12.81
2023-09-11T03:37:27.484Z,12.77
2023-09-11T03:39:58.533Z,12.76
2023-09-11T03:42:26.983Z,12.74
2023-09-11T03:44:55.461Z,12.72
2023-09-11T03:47:23.670Z,12.70
2023-09-11T03:49:52.034Z,12.69
2023-09-11T03:52:20.516Z,12.68
2023-09-11T03:54:48.883Z,12.67
2023-09-11T03:57:17.012Z,12.65
2023-09-11T03:59:45.013Z,12.64
2023-09-11T04:02:12.987Z,12.63
2023-09-11T04:04:41.011Z,12.59
2023-09-11T04:07:09.134Z,12.54
2023-09-11T04:09:37.296Z,12.52
2023-09-11T04:12:06.754Z,12.53
2023-09-11T04:14:38.707Z,12.54
2023-09-11T04:17:06.739Z,12.54
2023-09-11T04:19:34.929Z,12.55
2023-09-11T04:22:03.193Z,12.57
2023-09-11T04:24:31.501Z,12.61
2023-09-11T04:26:59.665Z,12.64
2023-09-11T04:29:29.453Z,12.69
2023-09-11T04:31:57.475Z,12.91
2023-09-11T04:34:26.079Z,13.48
2023-09-11T04:36:54.223Z,14.13
2023-09-11T04:39:25.445Z,14.74
2023-09-11T04:41:53.656Z,15.29
2023-09-11T04:44:21.871Z,15.85
2023-09-11T04:46:50.065Z,16.47
2023-09-11T04:49:18.637Z,16.97
2023-09-11T04:51:46.600Z,17.40
2023-09-11T04:54:14.884Z,17.76
2023-09-11T04:56:43.656Z,18.18
2023-09-11T04:59:11.770Z,18.45
2023-09-11T05:01:40.052Z,18.61
2023-09-11T05:04:09.363Z,18.69
2023-09-11T05:06:37.409Z,18.58
2023-09-11T05:09:11.440Z,18.60
2023-09-11T05:11:40.907Z,18.71
2023-09-11T05:14:09.781Z,18.81
2023-09-11T05:16:37.782Z,18.85
2023-09-11T05:19:06.093Z,19.06
2023-09-11T05:21:34.486Z,19.33
2023-09-11T05:24:02.729Z,19.47
2023-09-11T05:26:31.449Z,19.61
2023-09-11T05:28:59.532Z,19.84
2023-09-11T05:31:27.617Z,20.04
2023-09-11T05:33:55.740Z,20.23
2023-09-11T05:36:23.732Z,20.29
2023-09-11T05:38:52.276Z,20.26
2023-09-11T05:41:21.793Z,20.17
2023-09-11T05:43:49.714Z,20.22
2023-09-11T05:46:17.950Z,20.41
2023-09-11T05:48:46.337Z,20.53
2023-09-11T05:51:15.538Z,20.64
2023-09-11T05:53:43.538Z,20.84
2023-09-11T05:56:11.591Z,20.99
2023-09-11T05:58:40.323Z,21.03
2023-09-11T06:01:08.792Z,21.08
2023-09-11T06:03:37.021Z,21.13
2023-09-11T06:06:05.515Z,21.24
2023-09-11T06:08:36.734Z,21.40
2023-09-11T06:11:04.774Z,21.51
2023-09-11T06:13:34.445Z,21.78
2023-09-11T06:16:02.757Z,22.18
2023-09-11T06:18:31.056Z,22.35
2023-09-11T06:20:59.876Z,22.63
2023-09-11T06:23:27.982Z,22.92
2023-09-11T06:25:56.013Z,23.06
2023-09-11T06:28:24.096Z,23.08
2023-09-11T06:30:52.152Z,23.26
2023-09-11T06:33:20.540Z,23.37
2023-09-11T06:35:48.858Z,23.45
2023-09-11T06:38:17.246Z,23.29
2023-09-11T06:40:45.683Z,23.36
2023-09-11T06:43:13.525Z,23.43
2023-09-11T06:45:43.023Z,23.56
2023-09-11T06:48:14.072Z,23.76
2023-09-11T06:50:42.182Z,23.86
2023-09-11T06:53:11.014Z,23.93
2023-09-11T06:55:45.839Z,24.12
2023-09-11T06:58:13.934Z,24.16
2023-09-11T07:00:42.391Z,24.36
2023-09-11T07:03:10.952Z,24.46
2023-09-11T07:05:39.966Z,24.35
2023-09-11T07:08:08.059Z,24.44
2023-09-11T07:10:41.736Z,24.49
2023-09-11T07:13:10.195Z,24.70
2023-09-11T07:15:38.233Z,24.94
2023-09-11T07:18:06.427Z,25.01
2023-09-11T07:20:34.469Z,25.17
2023-09-11T07:23:02.646Z,25.41
2023-09-11T07:25:30.785Z,25.83
2023-09-11T07:27:58.791Z,26.07
2023-09-11T07:30:28.720Z,26.33
2023-09-11T07:32:56.879Z,26.31
2023-09-11T07:35:24.906Z,26.19
2023-09-11T07:37:52.800Z,26.33
2023-09-11T07:40:21.084Z,26.71
2023-09-11T07:42:49.078Z,26.90
2023-09-11T07:45:17.103Z,26.90
2023-09-11T07:47:45.726Z,26.90
2023-09-11T07:50:13.787Z,26.82
2023-09-11T07:52:41.797Z,26.83
2023-09-11T07:55:09.777Z,26.87
2023-09-11T07:57:41.452Z,27.04
2023-09-11T08:00:09.982Z,27.50
2023-09-11T08:02:38.247Z,27.72
2023-09-11T08:05:06.759Z,27.73
2023-09-11T08:07:34.714Z,27.84
2023-09-11T08:10:02.955Z,27.99
2023-09-11T08:12:33.095Z,27.93
2023-09-11T08:15:01.209Z,27.92
2023-09-11T08:17:30.517Z,28.13
2023-09-11T08:19:58.712Z,28.53
2023-09-11T08:22:26.762Z,28.94
2023-09-11T08:24:54.776Z,29.39
2023-09-11T08:27:22.906Z,29.62
2023-09-11T08:29:50.904Z,29.90
2023-09-11T08:32:18.928Z,30.02
2023-09-11T08:34:46.902Z,30.42
2023-09-11T08:37:15.194Z,31.22
2023-09-11T08:39:43.090Z,31.73
2023-09-11T08:42:11.605Z,31.95
2023-09-11T08:44:39.564Z,32.06
2023-09-11T08:47:07.888Z,31.48
2023-09-11T08:49:40.218Z,31.14
2023-09-11T08:52:10.534Z,31.21
2023-09-11T08:54:39.770Z,31.68
2023-09-11T08:57:08.422Z,31.89
2023-09-11T08:59:38.886Z,31.76
2023-09-11T09:02:08.280Z,32.42
2023-09-11T09:04:36.980Z,32.75
2023-09-11T09:07:07.358Z,32.51
2023-09-11T09:09:36.072Z,32.81
2023-09-11T09:12:05.673Z,33.30
2023-09-11T09:14:38.377Z,33.53
2023-09-11T09:17:07.668Z,33.85
2023-09-11T09:19:35.934Z,34.03
2023-09-11T09:22:07.071Z,34.07
2023-09-11T09:24:35.743Z,34.27
2023-09-11T09:27:05.630Z,34.49
2023-09-11T09:29:37.906Z,34.66
2023-09-11T09:32:06.994Z,35.02
2023-09-11T09:34:36.098Z,35.16
2023-09-11T09:37:04.619Z,35.25
2023-09-11T09:39:34.758Z,35.25
2023-09-11T09:42:04.030Z,35.13
2023-09-11T09:44:36.327Z,34.90
2023-09-11T09:47:11.674Z,34.95
2023-09-11T09:49:48.230Z,35.37
2023-09-11T09:52:16.800Z,35.71
2023-09-11T09:54:52.588Z,35.87
2023-09-11T09:57:22.021Z,35.65
2023-09-11T09:59:51.918Z,34.85
2023-09-11T10:02:27.155Z,34.21
2023-09-11T10:04:57.902Z,34.25
2023-09-11T10:07:38.638Z,34.44
2023-09-11T10:10:29.948Z,34.31
2023-09-11T10:13:11.619Z,34.56
2023-09-11T10:15:40.527Z,35.14
2023-09-11T10:18:13.302Z,35.47
2023-09-11T10:20:41.675Z,35.28
2023-09-11T10:23:10.521Z,35.18
2023-09-11T10:25:40.578Z,35.01
2023-09-11T10:28:12.877Z,35.33
2023-09-11T10:30:57.913Z,35.67
2023-09-11T10:33:35.325Z,35.90
2023-09-11T10:36:11.563Z,36.04
2023-09-11T10:38:40.294Z,36.05
2023-09-11T10:41:09.424Z,35.42
2023-09-11T10:43:37.897Z,35.03
2023-09-11T10:46:29.480Z,35.07
2023-09-11T10:48:59.366Z,35.21
2023-09-11T10:51:30.102Z,35.28
2023-09-11T10:53:58.250Z,35.30
2023-09-11T10:56:26.302Z,35.36
2023-09-11T10:58:55.119Z,35.73
2023-09-11T11:01:24.276Z,35.99
2023-09-11T11:03:54.354Z,36.24
2023-09-11T11:06:23.535Z,36.23
2023-09-11T11:08:51.827Z,35.94
2023-09-11T11:11:30.966Z,35.44
2023-09-11T11:14:13.693Z,35.14
2023-09-11T11:16:54.549Z,34.95
2023-09-11T11:19:25.973Z,34.97
2023-09-11T11:21:54.140Z,35.10
2023-09-11T11:24:24.314Z,35.44
2023-09-11T11:26:57.258Z,35.54
2023-09-11T11:29:27.267Z,35.23
2023-09-11T11:31:59.064Z,35.31
2023-09-11T11:34:31.169Z,35.45
2023-09-11T11:37:05.217Z,35.64
2023-09-11T11:39:37.082Z,35.48
2023-09-11T11:42:05.999Z,35.55
2023-09-11T11:44:36.122Z,35.59
2023-09-11T11:47:05.109Z,35.70
2023-09-11T11:49:33.262Z,35.63
2023-09-11T11:52:02.113Z,35.42
2023-09-11T11:54:31.024Z,35.13
2023-09-11T11:57:00.157Z,34.79
2023-09-11T11:59:35.360Z,34.72
2023-09-11T12:02:04.684Z,34.84
2023-09-11T12:04:47.825Z,34.87
2023-09-11T12:07:18.510Z,34.89
2023-09-11T12:09:46.682Z,34.97
2023-09-11T12:12:15.372Z,35.04
2023-09-11T12:14:43.508Z,34.94
2023-09-11T12:17:12.439Z,35.01
2023-09-11T12:19:40.531Z,35.18
2023-09-11T12:22:10.165Z,35.11
2023-09-11T12:24:38.265Z,35.08
2023-09-11T12:27:06.889Z,34.89
2023-09-11T12:29:34.893Z,34.66
2023-09-11T12:32:03.188Z,34.58
2023-09-11T12:34:44.932Z,34.60
2023-09-11T12:37:13.388Z,34.42
2023-09-11T12:39:41.589Z,34.22
2023-09-11T12:42:09.814Z,34.08
2023-09-11T12:44:38.257Z,33.77
2023-09-11T12:47:06.776Z,33.56
2023-09-11T12:49:34.951Z,33.28
2023-09-11T12:52:03.343Z,33.08
2023-09-11T12:54:33.599Z,32.91
2023-09-11T12:57:02.302Z,32.78
2023-09-11T12:59:34.518Z,32.67
2023-09-11T13:02:04.931Z,32.56
2023-09-11T13:04:34.744Z,32.49
2023-09-11T13:07:02.799Z,32.29
2023-09-11T13:09:34.361Z,31.99
2023-09-11T13:12:02.441Z,31.78
2023-09-11T13:14:30.534Z,31.71
2023-09-11T13:16:59.098Z,31.63
2023-09-11T13:19:27.157Z,31.55
2023-09-11T13:21:55.438Z,31.49
2023-09-11T13:24:23.646Z,31.51
2023-09-11T13:26:51.830Z,31.44
2023-09-11T13:29:19.806Z,31.36
2023-09-11T13:31:48.121Z,31.33
2023-09-11T13:34:16.191Z,31.27
2023-09-11T13:36:45.898Z,31.21
2023-09-11T13:39:14.138Z,31.19
2023-09-11T13:41:42.219Z,31.11
2023-09-11T13:44:10.718Z,31.02
2023-09-11T13:46:38.649Z,30.97
2023-09-11T13:49:07.503Z,30.97
2023-09-11T13:51:35.562Z,30.98
2023-09-11T13:54:03.935Z,30.96
2023-09-11T13:56:31.891Z,30.88
2023-09-11T13:59:00.379Z,30.79
2023-09-11T14:01:28.259Z,30.72
2023-09-11T14:03:56.539Z,30.70
2023-09-11T14:06:25.127Z,30.59
2023-09-11T14:08:53.510Z,30.48
2023-09-11T14:11:21.471Z,30.43
2023-09-11T14:13:49.308Z,30.32
2023-09-11T14:16:18.752Z,30.24
2023-09-11T14:18:47.374Z,30.18
2023-09-11T14:21:15.693Z,30.13
2023-09-11T14:23:43.907Z,30.03
2023-09-11T14:26:12.328Z,29.97
2023-09-11T14:28:40.446Z,29.95
2023-09-11T14:31:08.792Z,29.87
2023-09-11T14:33:36.873Z,29.85
2023-09-11T14:36:05.390Z,29.81
2023-09-11T14:38:33.608Z,29.79
2023-09-11T14:41:01.569Z,29.77
2023-09-11T14:43:29.565Z,29.70
2023-09-11T14:45:57.942Z,29.72
2023-09-11T14:48:26.006Z,29.73
2023-09-11T14:50:54.288Z,29.71
2023-09-11T14:53:22.452Z,29.64
2023-09-11T14:55:50.262Z,29.62
2023-09-11T14:58:18.293Z,29.59
2023-09-11T15:00:46.320Z,29.60
2023-09-11T15:03:14.793Z,29.54
2023-09-11T15:05:42.986Z,29.50
2023-09-11T15:08:12.797Z,29.42
2023-09-11T15:10:43.888Z,29.33
2023-09-11T15:13:12.224Z,29.20
2023-09-11T15:15:43.468Z,29.09
2023-09-11T15:18:14.180Z,29.01
2023-09-11T15:20:43.236Z,28.95
2023-09-11T15:23:11.490Z,28.89
2023-09-11T15:25:39.657Z,28.84
2023-09-11T15:28:08.350Z,28.79
2023-09-11T15:30:39.070Z,28.71
2023-09-11T15:33:07.491Z,28.60
2023-09-11T15:36:02.855Z,28.52
2023-09-11T15:38:32.452Z,28.42
2023-09-11T15:41:07.213Z,28.29
2023-09-11T15:43:39.407Z,28.16
2023-09-11T15:46:08.678Z,28.06
2023-09-11T15:48:38.323Z,27.97
2023-09-11T15:51:07.249Z,27.89
2023-09-11T15:53:36.749Z,27.78
2023-09-11T15:56:05.438Z,27.69
2023-09-11T15:58:33.626Z,27.63
2023-09-11T16:01:01.695Z,27.54
2023-09-11T16:03:29.775Z,27.46
2023-09-11T16:05:57.740Z,27.40
2023-09-11T16:08:25.657Z,27.29
2023-09-11T16:10:53.601Z,27.19
2023-09-11T16:13:21.622Z,27.08
2023-09-11T16:15:49.886Z,26.96
2023-09-11T16:18:18.380Z,26.85
2023-09-11T16:20:46.403Z,26.75
2023-09-11T16:23:14.650Z,26.63
2023-09-11T16:25:43.461Z,26.48
2023-09-11T16:28:11.896Z,26.32
2023-09-11T16:30:39.730Z,26.14
2023-09-11T16:33:08.600Z,25.93
2023-09-11T16:35:36.654Z,25.63
2023-09-11T16:38:05.294Z,25.37
2023-09-11T16:40:35.452Z,25.17
2023-09-11T16:43:03.930Z,24.94
2023-09-11T16:45:32.277Z,24.65
2023-09-11T16:48:00.640Z,24.39
2023-09-11T16:50:28.663Z,24.20
2023-09-11T16:52:57.430Z,23.99
2023-09-11T16:55:26.002Z,23.76
2023-09-11T16:57:54.068Z,23.57
2023-09-11T17:00:24.415Z,23.41
2023-09-11T17:02:55.888Z,23.24
2023-09-11T17:05:24.231Z,23.04
2023-09-11T17:07:52.724Z,22.86
2023-09-11T17:10:20.753Z,22.70
2023-09-11T17:12:50.076Z,22.54
2023-09-11T17:15:18.220Z,22.35
2023-09-11T17:17:46.903Z,22.23
2023-09-11T17:20:17.311Z,22.09
2023-09-11T17:22:45.383Z,21.95
2023-09-11T17:25:13.805Z,21.85
2023-09-11T17:27:42.028Z,21.74
2023-09-11T17:30:10.460Z,21.62
2023-09-11T17:32:40.734Z,21.50
2023-09-11T17:35:09.103Z,21.42
2023-09-11T17:37:37.160Z,21.36
2023-09-11T17:40:05.712Z,21.33
2023-09-11T17:42:36.835Z,21.30
2023-09-11T17:45:05.832Z,21.24
2023-09-11T17:47:33.722Z,21.19
2023-09-11T17:50:01.937Z,21.13
2023-09-11T17:52:30.222Z,21.07
2023-09-11T17:54:58.176Z,21.02
2023-09-11T17:57:26.195Z,21.00
2023-09-11T17:59:54.646Z,20.96
2023-09-11T18:02:24.190Z,20.89
2023-09-11T18:04:53.175Z,20.84
2023-09-11T18:07:22.677Z,20.79
2023-09-11T18:09:51.179Z,20.75
2023-09-11T18:12:19.626Z,20.71
2023-09-11T18:14:48.473Z,20.68
2023-09-11T18:17:16.488Z,20.60
2023-09-11T18:19:44.697Z,20.50
2023-09-11T18:22:12.727Z,20.42
2023-09-11T18:24:41.497Z,20.38
2023-09-11T18:27:09.916Z,20.36
2023-09-11T18:29:37.960Z,20.37
2023-09-11T18:32:06.254Z,20.34
2023-09-11T18:34:36.581Z,20.30
2023-09-11T18:37:04.884Z,20.24
2023-09-11T18:39:33.273Z,20.19
2023-09-11T18:42:04.147Z,20.17
2023-09-11T18:44:32.191Z,20.18
2023-09-11T18:47:00.302Z,20.18
2023-09-11T18:49:30.018Z,20.15
2023-09-11T18:51:58.032Z,20.10
2023-09-11T18:54:27.758Z,20.07
2023-09-11T18:56:56.083Z,20.00
2023-09-11T18:59:27.263Z,19.93
2023-09-11T19:02:02.584Z,19.88
2023-09-11T19:04:32.749Z,19.84
2023-09-11T19:07:01.057Z,19.76
2023-09-11T19:09:29.290Z,19.66
2023-09-11T19:11:57.707Z,19.50
2023-09-11T19:14:26.130Z,19.40
2023-09-11T19:16:54.253Z,19.35
2023-09-11T19:19:22.045Z,19.32
2023-09-11T19:21:49.987Z,19.28
2023-09-11T19:24:18.062Z,19.25
2023-09-11T19:26:46.357Z,19.18
2023-09-11T19:29:14.269Z,19.11
2023-09-11T19:31:42.371Z,18.97
2023-09-11T19:34:11.417Z,18.83
2023-09-11T19:36:39.310Z,18.73
2023-09-11T19:39:10.305Z,18.67
2023-09-11T19:41:40.330Z,18.63
2023-09-11T19:44:08.244Z,18.59
2023-09-11T19:46:37.085Z,18.55
2023-09-11T19:49:05.046Z,18.50
2023-09-11T19:51:33.021Z,18.44
2023-09-11T19:54:00.995Z,18.39
2023-09-11T19:56:29.117Z,18.34
2023-09-11T19:58:57.297Z,18.31
2023-09-11T20:01:26.722Z,18.24
2023-09-11T20:03:55.644Z,18.14
2023-09-11T20:06:24.037Z,18.06
2023-09-11T20:08:52.058Z,17.98
2023-09-11T20:11:19.988Z,17.88
2023-09-11T20:13:48.616Z,17.83
2023-09-11T20:16:16.911Z,17.81
2023-09-11T20:18:45.335Z,17.81
2023-09-11T20:21:13.932Z,17.82
2023-09-11T20:23:42.198Z,17.85
2023-09-11T20:26:10.183Z,17.88
2023-09-11T20:28:38.548Z,17.88
2023-09-11T20:31:12.876Z,17.85
2023-09-11T20:33:43.262Z,17.82
2023-09-11T20:36:11.974Z,17.80
2023-09-11T20:38:40.840Z,17.84
2023-09-11T20:41:09.457Z,17.84
2023-09-11T20:43:37.919Z,17.78
2023-09-11T20:46:06.293Z,17.74
2023-09-11T20:48:34.561Z,17.67
2023-09-11T20:51:02.604Z,17.62
2023-09-11T20:53:30.801Z,17.57
2023-09-11T20:55:58.948Z,17.55
2023-09-11T20:58:27.508Z,17.52
2023-09-11T21:00:55.699Z,17.45
2023-09-11T21:03:23.983Z,17.46
2023-09-11T21:05:52.380Z,17.49
2023-09-11T21:08:20.571Z,17.49
2023-09-11T21:10:50.593Z,17.43
2023-09-11T21:13:18.828Z,17.32
2023-09-11T21:15:47.117Z,17.20
2023-09-11T21:18:15.335Z,17.17
2023-09-11T21:20:43.755Z,17.14
2023-09-11T21:23:11.586Z,17.13
2023-09-11T21:25:40.031Z,17.16
2023-09-11T21:28:08.232Z,17.15
2023-09-11T21:30:36.446Z,17.03
2023-09-11T21:33:04.647Z,16.88
2023-09-11T21:35:32.932Z,16.77
2023-09-11T21:38:00.781Z,16.71
2023-09-11T21:40:28.657Z,16.66
2023-09-11T21:42:56.662Z,16.58
2023-09-11T21:45:24.886Z,16.48
2023-09-11T21:47:54.912Z,16.33
2023-09-11T21:50:23.288Z,16.25
2023-09-11T21:52:51.470Z,16.23
2023-09-11T21:55:19.641Z,16.24
2023-09-11T21:57:47.817Z,16.25
2023-09-11T22:00:16.919Z,16.25
2023-09-11T22:02:45.052Z,16.29
2023-09-11T22:05:13.181Z,16.31
2023-09-11T22:07:42.067Z,16.33
2023-09-11T22:10:10.182Z,16.33
2023-09-11T22:12:39.119Z,16.35
2023-09-11T22:15:07.482Z,16.34
2023-09-11T22:17:35.559Z,16.33
2023-09-11T22:20:06.443Z,16.35
2023-09-11T22:22:35.284Z,16.33
2023-09-11T22:25:03.573Z,16.31
2023-09-11T22:27:31.642Z,16.29
2023-09-11T22:30:00.072Z,16.27
2023-09-11T22:32:30.916Z,16.24
2023-09-11T22:35:03.447Z,16.08
2023-09-11T22:37:31.594Z,15.91
2023-09-11T22:39:59.766Z,15.86
2023-09-11T22:42:28.012Z,15.82
2023-09-11T22:44:56.002Z,15.81
2023-09-11T22:47:24.037Z,15.79
2023-09-11T22:49:52.017Z,15.76
2023-09-11T22:52:20.139Z,15.71
2023-09-11T22:54:50.565Z,15.68
2023-09-11T22:57:21.877Z,15.63
2023-09-11T22:59:49.869Z,15.59
2023-09-11T23:02:17.956Z,15.57
2023-09-11T23:04:45.811Z,15.51
2023-09-11T23:07:13.671Z,15.43
2023-09-11T23:09:41.592Z,15.35
2023-09-11T23:12:09.539Z,15.29
2023-09-11T23:14:37.436Z,15.27
2023-09-11T23:17:05.313Z,15.26
2023-09-11T23:19:33.404Z,15.27
2023-09-11T23:22:01.370Z,15.32
2023-09-11T23:24:29.262Z,15.39
2023-09-11T23:26:57.408Z,15.46
2023-09-11T23:29:25.300Z,15.53
2023-09-11T23:31:53.569Z,15.57
2023-09-11T23:34:21.382Z,15.59
2023-09-11T23:36:49.363Z,15.60
2023-09-11T23:39:17.364Z,15.57
2023-09-11T23:41:47.363Z,15.52
2023-09-11T23:44:16.279Z,15.55
2023-09-11T23:46:44.327Z,15.61
2023-09-11T23:49:12.114Z,15.61
2023-09-11T23:51:40.218Z,15.60
2023-09-11T23:54:08.472Z,15.63
2023-09-11T23:56:36.420Z,15.58
2023-09-11T23:59:04.791Z,15.54
